Flynn, Texas
Current Conditions -  °F | °C
As of 1:35 PM on Saturday 25 Oct 2014 (Local Time) from KCFD Reporting Station
Clear Clear  
Wind Chill: 83°   Ceiling: Unl
Heat Index: 83°   Visibility: 10mi
Dew Point: 61°   Wind: 0mph
Humidity: 48%   Direction: NA
Pressure: 30.15"   Gusts: NA
Location:  31.15°N, 96.12°W
Report Text: KCFD 251835Z AUTO 00000KT 10SM CLR 28/16 A3015 RMK AO2 T02830163
Loading
Personal Weather Stations






























Interactive Weather Map
Tropical Storm Tracking
New forecast layout! Learn more

10-Day Weather Forecast

Advertisements
Track Severe Weather on mobile